Terminal Aerodrome Forecast
Issued by NWS

Home | Current Version | Previous Version | Text Only | Print | Product List | Glossary Off
Versions: 1 2 3 4 5 6 7 8 9 10 11 12 13 14 15 16 17 18 19 20 21 22

000
FTUS43 KTOP 151700
TAFMHK
TAF
KMHK 151720Z 1518/1618 13012KT P6SM BKN045
     FM160200 11007KT P6SM OVC024
     FM160700 12004KT 3SM BR SCT010 OVC013 PROB30 1612/1616 -TSRA
      BKN021CB
     FM161600 14011KT P6SM SCT040=

USA.gov is the U.S. government's official web portal to all federal, state and local government web resources and services.